Time;durP1;ratioP1;P1;durP2;ratioP2;P2;SDS_P1;SDS_P2;PMS_P1;PMS_P2;Temp;Humidity;BMP_temperature;BMP_pressure;BME280_temperature;BME280_humidity;BME280_pressure;Samples;Min_cycle;Max_cycle;Signal;HPM_P1;HPM_P2
2022/04/11 00:01:16;;;;;;;9.80;6.30;;;8.30;64.50;;;;;;4888742;29;20519;-90
2022/04/11 00:03:43;;;;;;;9.85;6.65;;;8.30;64.60;;;;;;4887524;29;20135;-89
2022/04/11 00:06:10;;;;;;;9.77;6.60;;;8.20;64.60;;;;;;4888422;29;20056;-89
2022/04/11 00:08:38;;;;;;;8.73;6.57;;;8.20;64.60;;;;;;4886597;29;20045;-89
2022/04/11 00:11:05;;;;;;;10.10;6.88;;;8.20;64.70;;;;;;4884264;29;20057;-88
2022/04/11 00:13:32;;;;;;;14.30;6.68;;;8.10;64.70;;;;;;4884907;29;20464;-89
2022/04/11 00:15:59;;;;;;;8.98;6.30;;;8.10;64.80;;;;;;4888509;29;20056;-89
2022/04/11 00:18:26;;;;;;;11.68;6.85;;;8.00;64.80;;;;;;4888390;29;20109;-89
2022/04/11 00:20:53;;;;;;;8.70;6.75;;;8.00;64.80;;;;;;4888025;29;20052;-88
2022/04/11 00:23:21;;;;;;;10.10;6.95;;;7.90;64.90;;;;;;4884237;29;20053;-87
2022/04/11 00:25:48;;;;;;;9.18;6.15;;;7.90;64.90;;;;;;4895086;29;20053;-89
2022/04/11 00:28:15;;;;;;;10.52;6.65;;;7.90;64.90;;;;;;4886712;29;20053;-88
2022/04/11 00:30:42;;;;;;;8.75;6.38;;;7.90;64.90;;;;;;4888135;29;20403;-90
2022/04/11 00:33:09;;;;;;;9.15;6.55;;;7.90;65.00;;;;;;4887916;29;20041;-90
2022/04/11 00:35:36;;;;;;;9.40;6.75;;;7.80;65.00;;;;;;4885941;29;20112;-89
2022/04/11 00:38:03;;;;;;;9.65;6.28;;;7.70;65.00;;;;;;4883673;29;20471;-89
2022/04/11 00:40:30;;;;;;;9.38;5.50;;;7.70;65.00;;;;;;4885312;29;20130;-89
2022/04/11 00:42:56;;;;;;;9.20;6.40;;;7.60;65.00;;;;;;4887941;29;20052;-89
2022/04/11 00:45:23;;;;;;;8.70;6.07;;;7.60;65.00;;;;;;4887817;29;20052;-89
2022/04/11 00:47:50;;;;;;;9.05;6.13;;;7.60;65.10;;;;;;4886425;29;20108;-88
2022/04/11 00:50:17;;;;;;;8.98;6.32;;;7.50;65.10;;;;;;4883006;29;20107;-88
2022/04/11 00:52:48;;;;;;;9.15;6.03;;;7.40;65.20;;;;;;4884589;29;20114;-88
2022/04/11 00:55:20;;;;;;;8.05;6.30;;;7.40;65.20;;;;;;4886500;29;20091;-89
2022/04/11 00:57:47;;;;;;;9.55;6.10;;;7.40;65.30;;;;;;4887672;29;20057;-89
2022/04/11 01:00:15;;;;;;;8.65;5.95;;;7.30;65.30;;;;;;4887560;29;20476;-89
2022/04/11 01:02:42;;;;;;;9.15;5.75;;;7.30;65.40;;;;;;4886163;29;20055;-89
2022/04/11 01:05:10;;;;;;;8.73;6.07;;;7.20;65.40;;;;;;4882823;29;20049;-89
2022/04/11 01:07:38;;;;;;;7.82;5.68;;;7.20;65.50;;;;;;4885425;29;20179;-87
2022/04/11 01:10:06;;;;;;;8.90;5.97;;;7.20;65.50;;;;;;4887520;29;20060;-87
2022/04/11 01:12:33;;;;;;;10.73;5.88;;;7.20;65.50;;;;;;4887004;29;20045;-89
2022/04/11 01:15:00;;;;;;;7.97;5.47;;;7.10;65.60;;;;;;4887508;29;20467;-88
2022/04/11 01:17:34;;;;;;;9.07;5.85;;;7.10;65.60;;;;;;4884055;29;20049;-89
2022/04/11 01:20:12;;;;;;;8.50;5.90;;;7.00;65.70;;;;;;4882572;29;20132;-89
2022/04/11 01:22:40;;;;;;;8.38;5.60;;;7.00;65.70;;;;;;4883841;29;20521;-90
2022/04/11 01:25:08;;;;;;;8.80;5.60;;;6.90;65.70;;;;;;4885918;29;20400;-88
2022/04/11 01:27:36;;;;;;;8.88;5.47;;;6.90;65.80;;;;;;4886116;29;20113;-88
2022/04/11 01:30:05;;;;;;;10.20;5.88;;;6.90;65.80;;;;;;4887068;29;20392;-89
2022/04/11 01:32:32;;;;;;;9.23;5.47;;;6.90;65.80;;;;;;4884000;29;20044;-88
2022/04/11 01:34:59;;;;;;;9.18;6.50;;;6.80;65.90;;;;;;4882810;29;20064;-88
2022/04/11 01:37:27;;;;;;;9.30;5.72;;;6.80;65.90;;;;;;4885730;29;20053;-89
2022/04/11 01:39:54;;;;;;;9.55;5.93;;;6.80;65.90;;;;;;4886900;29;20100;-88
2022/04/11 01:42:21;;;;;;;9.13;5.57;;;6.80;66.00;;;;;;4886838;29;20101;-89
2022/04/11 01:44:48;;;;;;;9.77;5.82;;;6.70;66.00;;;;;;4886184;29;20477;-89
2022/04/11 01:47:15;;;;;;;13.48;5.20;;;6.70;66.00;;;;;;4882144;29;20105;-88
2022/04/11 01:49:45;;;;;;;9.13;6.00;;;6.60;66.10;;;;;;4883854;29;20049;-88
2022/04/11 01:52:11;;;;;;;8.75;5.80;;;6.60;66.10;;;;;;4886635;29;20060;-88
2022/04/11 01:54:38;;;;;;;8.05;5.47;;;6.60;66.10;;;;;;4885502;29;20085;-87
2022/04/11 01:57:23;;;;;;;9.80;5.70;;;6.50;66.20;;;;;;4886675;29;20056;-88
2022/04/11 01:59:50;;;;;;;9.90;6.43;;;6.50;66.20;;;;;;4886129;29;20100;-89
2022/04/11 02:02:17;;;;;;;12.13;6.13;;;6.40;66.30;;;;;;4880683;29;20055;-89
2022/04/11 02:04:44;;;;;;;10.05;6.25;;;6.40;66.40;;;;;;4883465;29;20645;-88
2022/04/11 02:07:11;;;;;;;9.68;6.13;;;6.40;66.40;;;;;;4886442;29;20072;-88
2022/04/11 02:09:38;;;;;;;10.10;6.85;;;6.40;66.50;;;;;;4886562;29;20057;-89
2022/04/11 02:12:06;;;;;;;10.88;6.45;;;6.40;66.60;;;;;;4886148;29;20108;-88
2022/04/11 02:14:33;;;;;;;10.27;6.68;;;6.40;66.60;;;;;;4883849;29;20097;-88
2022/04/11 02:16:59;;;;;;;10.93;6.75;;;6.30;66.70;;;;;;4881751;29;20510;-88
2022/04/11 02:19:26;;;;;;;10.10;6.82;;;6.30;66.70;;;;;;4885304;29;20472;-87
2022/04/11 02:21:53;;;;;;;8.55;6.43;;;6.30;66.70;;;;;;4886215;29;20060;-88
2022/04/11 02:24:20;;;;;;;10.32;7.03;;;6.30;66.80;;;;;;4886344;29;20077;-87
2022/04/11 02:26:47;;;;;;;8.77;6.43;;;6.20;66.80;;;;;;4885508;29;20049;-88
2022/04/11 02:29:14;;;;;;;11.45;6.22;;;6.20;66.90;;;;;;4881659;29;20052;-89
2022/04/11 02:31:41;;;;;;;7.93;5.68;;;6.20;66.90;;;;;;4883050;29;20060;-88
2022/04/11 02:34:08;;;;;;;9.18;5.97;;;6.20;67.00;;;;;;4886164;29;20053;-87
2022/04/11 02:36:35;;;;;;;9.23;5.85;;;6.20;66.90;;;;;;4886128;29;20483;-88
2022/04/11 02:39:02;;;;;;;12.45;6.40;;;6.20;67.00;;;;;;4886043;29;20045;-88
2022/04/11 02:41:29;;;;;;;9.27;6.32;;;6.10;67.00;;;;;;4882946;29;20060;-89
2022/04/11 02:43:55;;;;;;;10.40;5.85;;;6.10;67.10;;;;;;4881880;29;20056;-89
2022/04/11 02:46:22;;;;;;;9.30;6.25;;;6.10;67.10;;;;;;4885213;29;20057;-88
2022/04/11 02:48:49;;;;;;;9.10;5.88;;;6.10;67.10;;;;;;4886029;29;20418;-88
2022/04/11 02:51:16;;;;;;;9.00;5.75;;;6.00;67.10;;;;;;4889357;29;20108;-89
2022/04/11 02:53:43;;;;;;;11.23;6.50;;;6.00;67.20;;;;;;4888662;29;20045;-88
2022/04/11 02:56:10;;;;;;;10.27;6.07;;;6.00;67.20;;;;;;4885501;29;20084;-89
2022/04/11 02:58:37;;;;;;;10.27;6.53;;;6.00;67.20;;;;;;4886445;29;20113;-89
2022/04/11 03:01:04;;;;;;;13.25;7.97;;;6.00;67.30;;;;;;4889344;29;20586;-90
2022/04/11 03:03:31;;;;;;;12.77;8.52;;;5.90;67.30;;;;;;4889791;29;20061;-89
2022/04/11 03:05:58;;;;;;;12.02;7.50;;;5.90;67.30;;;;;;4888689;29;20089;-88
2022/04/11 03:08:25;;;;;;;11.63;7.38;;;5.90;67.30;;;;;;4885929;29;20048;-88
2022/04/11 03:10:52;;;;;;;12.23;7.95;;;5.90;67.40;;;;;;4885784;29;20447;-88
2022/04/11 03:13:19;;;;;;;13.20;7.82;;;5.90;67.40;;;;;;4888791;29;20526;-88
2022/04/11 03:15:46;;;;;;;11.65;7.47;;;5.90;67.40;;;;;;4889260;29;20143;-88
2022/04/11 03:18:13;;;;;;;10.70;7.63;;;5.90;67.40;;;;;;4889651;29;20063;-89
2022/04/11 03:20:40;;;;;;;11.13;7.28;;;5.90;67.50;;;;;;4887673;29;20100;-88
2022/04/11 03:23:07;;;;;;;11.73;7.35;;;5.90;67.50;;;;;;4899961;29;20463;-88
2022/04/11 03:25:36;;;;;;;9.93;6.70;;;5.90;67.50;;;;;;4887900;29;20514;-88
2022/04/11 03:28:03;;;;;;;12.93;7.03;;;5.90;67.50;;;;;;4889529;29;20057;-89
2022/04/11 03:30:30;;;;;;;10.95;7.15;;;5.90;67.50;;;;;;4889070;29;20049;-88
2022/04/11 03:32:57;;;;;;;11.23;6.40;;;5.90;67.50;;;;;;4888024;29;20045;-88
2022/04/11 03:35:24;;;;;;;11.60;6.68;;;5.90;67.50;;;;;;4885444;29;20506;-88
2022/04/11 03:37:51;;;;;;;11.10;6.00;;;5.80;67.50;;;;;;4885255;29;20116;-89
2022/04/11 03:40:18;;;;;;;11.90;7.13;;;5.90;67.50;;;;;;4899830;29;20048;-89
2022/04/11 03:42:44;;;;;;;9.25;6.47;;;5.90;67.40;;;;;;4893009;29;20049;-88
2022/04/11 03:45:11;;;;;;;8.27;5.60;;;5.90;67.40;;;;;;4888611;29;20052;-88
2022/04/11 03:47:38;;;;;;;9.30;6.03;;;5.90;67.40;;;;;;4887035;29;20458;-90
2022/04/11 03:50:06;;;;;;;10.23;6.25;;;5.90;67.40;;;;;;4884687;29;20093;-89
2022/04/11 03:52:33;;;;;;;9.85;5.75;;;5.90;67.40;;;;;;4885521;29;20113;-88
2022/04/11 03:55:00;;;;;;;8.73;5.65;;;5.90;67.40;;;;;;4888822;29;20056;-89
2022/04/11 03:57:27;;;;;;;8.75;5.38;;;5.90;67.40;;;;;;4888453;29;20050;-88
2022/04/11 03:59:54;;;;;;;11.32;6.28;;;5.90;67.30;;;;;;4888726;29;20502;-88
2022/04/11 04:02:21;;;;;;;10.48;5.88;;;5.90;67.30;;;;;;4884282;29;20068;-88
2022/04/11 04:04:48;;;;;;;10.10;5.82;;;5.90;67.30;;;;;;4894805;29;20104;-89
2022/04/11 04:07:19;;;;;;;8.98;5.70;;;5.90;67.30;;;;;;4888507;29;20130;-89
2022/04/11 04:09:46;;;;;;;9.00;5.28;;;5.90;67.30;;;;;;4888496;29;20053;-87
2022/04/11 04:12:17;;;;;;;9.13;5.82;;;5.90;67.20;;;;;;4887928;29;20462;-88
2022/04/11 04:14:44;;;;;;;10.27;5.32;;;5.90;67.20;;;;;;4887277;29;20581;-89
2022/04/11 04:17:10;;;;;;;8.10;5.45;;;5.90;67.10;;;;;;4883924;29;20065;-90
2022/04/11 04:19:37;;;;;;;10.43;5.38;;;5.90;67.10;;;;;;4886292;29;20053;-88
2022/04/11 04:22:05;;;;;;;11.00;5.68;;;5.90;67.10;;;;;;4888210;29;20068;-89
2022/04/11 04:24:34;;;;;;;10.32;5.97;;;5.90;67.00;;;;;;4888268;29;20049;-88
2022/04/11 04:27:04;;;;;;;10.45;5.97;;;5.90;67.00;;;;;;4886623;29;20052;-89
2022/04/11 04:29:31;;;;;;;8.05;5.80;;;5.90;67.00;;;;;;4885574;29;20093;-89
2022/04/11 04:31:58;;;;;;;8.15;5.47;;;5.90;67.00;;;;;;4883929;29;20057;-88
2022/04/11 04:34:25;;;;;;;10.00;6.07;;;5.90;67.00;;;;;;4898520;29;20459;-88
2022/04/11 04:36:53;;;;;;;11.18;5.95;;;5.90;67.00;;;;;;4891191;29;20057;-88
2022/04/11 04:39:20;;;;;;;9.82;5.90;;;5.90;66.90;;;;;;4886894;29;20041;-88
2022/04/11 04:41:47;;;;;;;9.57;6.03;;;5.90;66.90;;;;;;4885555;29;20112;-88
2022/04/11 04:44:14;;;;;;;10.68;5.25;;;5.90;66.90;;;;;;4883775;29;20117;-88
2022/04/11 04:46:41;;;;;;;8.75;5.85;;;5.80;66.90;;;;;;4884144;29;20143;-88
2022/04/11 04:49:08;;;;;;;7.28;5.40;;;5.80;66.90;;;;;;4887761;29;20045;-89
2022/04/11 04:51:34;;;;;;;7.60;5.18;;;5.80;66.90;;;;;;4887811;29;20053;-88
2022/04/11 04:54:01;;;;;;;8.60;5.43;;;5.80;66.90;;;;;;4887740;29;20056;-89
2022/04/11 04:56:29;;;;;;;8.18;5.53;;;5.70;66.90;;;;;;4884248;29;20048;-87
2022/04/11 04:58:55;;;;;;;7.72;5.45;;;5.70;66.90;;;;;;4882317;29;20053;-89
2022/04/11 05:01:22;;;;;;;8.85;5.40;;;5.70;66.90;;;;;;4887012;29;20423;-89
2022/04/11 05:03:50;;;;;;;8.63;5.75;;;5.70;67.00;;;;;;4887627;29;20590;-88
2022/04/11 05:06:17;;;;;;;7.90;5.50;;;5.60;67.00;;;;;;4887431;29;20480;-88
2022/04/11 05:08:44;;;;;;;7.07;4.93;;;5.60;67.00;;;;;;4886312;29;20606;-88
2022/04/11 05:11:13;;;;;;;10.10;5.80;;;5.60;67.00;;;;;;4882552;29;20061;-87
2022/04/11 05:13:40;;;;;;;9.63;5.97;;;5.60;67.00;;;;;;4884201;29;20064;-88
2022/04/11 05:16:07;;;;;;;10.45;5.28;;;5.60;67.10;;;;;;4887371;29;20060;-87
2022/04/11 05:18:34;;;;;;;12.70;5.65;;;5.50;67.10;;;;;;4887253;29;20045;-89
2022/04/11 05:21:00;;;;;;;7.65;5.13;;;5.50;67.10;;;;;;4887295;29;20055;-87
2022/04/11 05:23:27;;;;;;;12.02;5.90;;;5.50;67.10;;;;;;4882796;29;20041;-88
2022/04/11 05:25:56;;;;;;;10.57;5.18;;;5.50;67.10;;;;;;4897714;29;20056;-88
2022/04/11 05:28:24;;;;;;;8.52;5.60;;;5.50;67.20;;;;;;4897318;29;20061;-88
2022/04/11 05:30:51;;;;;;;9.30;5.30;;;5.40;67.20;;;;;;4890556;29;20053;-87
2022/04/11 05:33:18;;;;;;;8.43;5.32;;;5.40;67.30;;;;;;4887012;29;20156;-88
2022/04/11 05:35:45;;;;;;;9.95;5.13;;;5.40;67.30;;;;;;4885928;29;20045;-88
2022/04/11 05:38:13;;;;;;;8.40;5.45;;;5.40;67.30;;;;;;4882589;29;20572;-88
2022/04/11 05:40:40;;;;;;;10.65;5.72;;;5.40;67.40;;;;;;4894681;29;20458;-88
2022/04/11 05:43:13;;;;;;;6.97;4.72;;;5.30;67.40;;;;;;4895365;29;20056;-88
2022/04/11 05:45:41;;;;;;;10.48;5.10;;;5.30;67.50;;;;;;4893735;29;20053;-88
2022/04/11 05:48:09;;;;;;;9.23;5.20;;;5.30;67.50;;;;;;4893927;29;20524;-88
2022/04/11 05:50:36;;;;;;;7.88;5.50;;;5.30;67.50;;;;;;4893866;29;20045;-87
2022/04/11 05:53:03;;;;;;;9.82;5.40;;;5.30;67.60;;;;;;4896017;29;20059;-88
2022/04/11 05:55:31;;;;;;;9.57;5.40;;;5.20;67.60;;;;;;4895050;29;20060;-88
2022/04/11 05:57:59;;;;;;;9.02;5.85;;;5.20;67.70;;;;;;4895155;29;20065;-88
2022/04/11 06:00:26;;;;;;;10.50;6.05;;;5.20;67.70;;;;;;4893431;29;20044;-90
2022/04/11 06:02:53;;;;;;;9.93;6.10;;;5.20;67.80;;;;;;4893714;29;20490;-88
2022/04/11 06:05:20;;;;;;;8.18;5.47;;;5.20;67.80;;;;;;4879403;29;20055;-88
2022/04/11 06:07:47;;;;;;;9.93;5.68;;;5.10;67.80;;;;;;4897408;29;20057;-88
2022/04/11 06:10:14;;;;;;;9.18;5.20;;;5.20;67.90;;;;;;4893164;29;20052;-89
2022/04/11 06:12:42;;;;;;;10.93;5.75;;;5.10;67.90;;;;;;4893182;29;20056;-87
2022/04/11 06:15:11;;;;;;;12.07;5.60;;;5.20;68.00;;;;;;4893394;29;20055;-89
2022/04/11 06:17:38;;;;;;;8.27;5.40;;;5.20;68.00;;;;;;4893595;29;20574;-88
2022/04/11 06:20:06;;;;;;;9.88;5.97;;;5.10;68.10;;;;;;4895127;29;20049;-87
2022/04/11 06:22:38;;;;;;;11.20;5.90;;;5.10;68.20;;;;;;4894862;29;20056;-89
2022/04/11 06:25:05;;;;;;;13.35;6.00;;;5.10;68.20;;;;;;4892096;29;20570;-87
2022/04/11 06:27:32;;;;;;;9.68;6.53;;;5.10;68.30;;;;;;4896725;29;20502;-90
2022/04/11 06:29:59;;;;;;;9.45;5.97;;;5.10;68.30;;;;;;4892972;29;20044;-89
2022/04/11 06:32:27;;;;;;;11.30;6.43;;;5.10;68.40;;;;;;4892789;29;20425;-89
2022/04/11 06:34:54;;;;;;;19.25;6.47;;;5.20;68.50;;;;;;4896367;29;20100;-87
2022/04/11 06:37:23;;;;;;;9.88;6.20;;;5.20;68.60;;;;;;4893035;29;20104;-88
2022/04/11 06:39:51;;;;;;;9.38;5.88;;;5.20;68.60;;;;;;4894547;29;20049;-89
2022/04/11 06:42:19;;;;;;;14.02;6.65;;;5.20;68.70;;;;;;4891293;29;20402;-88
2022/04/11 06:44:46;;;;;;;13.38;6.63;;;5.20;68.80;;;;;;4891364;29;20048;-88
2022/04/11 06:47:13;;;;;;;8.98;5.57;;;5.20;68.90;;;;;;4893521;29;20064;-87
2022/04/11 06:49:40;;;;;;;10.90;6.50;;;5.30;69.00;;;;;;4895836;29;20052;-87
2022/04/11 06:52:07;;;;;;;8.32;5.43;;;5.30;69.00;;;;;;4893886;29;20091;-87
2022/04/11 06:54:34;;;;;;;9.77;6.03;;;5.40;69.10;;;;;;4893666;29;20048;-88
2022/04/11 06:57:01;;;;;;;8.73;5.47;;;5.40;69.10;;;;;;4892512;29;20407;-87
2022/04/11 06:59:28;;;;;;;9.38;5.30;;;5.50;69.10;;;;;;4892042;29;20128;-88
2022/04/11 07:01:55;;;;;;;9.35;5.65;;;5.50;69.20;;;;;;4894844;29;20057;-87
2022/04/11 07:04:23;;;;;;;10.15;5.28;;;5.50;69.30;;;;;;4894061;29;20132;-87
2022/04/11 07:06:50;;;;;;;8.35;5.03;;;5.60;69.40;;;;;;4893979;29;20056;-88
2022/04/11 07:09:17;;;;;;;7.75;5.13;;;5.70;69.40;;;;;;4892287;29;20407;-88
2022/04/11 07:11:44;;;;;;;8.43;5.15;;;5.70;69.40;;;;;;4891430;29;20056;-89
2022/04/11 07:14:11;;;;;;;10.57;5.00;;;5.80;69.50;;;;;;4894140;29;20521;-87
2022/04/11 07:16:38;;;;;;;8.88;5.30;;;5.90;69.50;;;;;;4894930;29;20510;-87
2022/04/11 07:19:06;;;;;;;9.70;5.30;;;5.90;69.50;;;;;;4892344;29;20529;-88
2022/04/11 07:21:33;;;;;;;9.48;5.47;;;6.00;69.50;;;;;;4892159;29;20112;-88
2022/04/11 07:24:00;;;;;;;8.52;5.38;;;6.10;69.50;;;;;;4892154;29;20126;-87
2022/04/11 07:26:27;;;;;;;8.70;5.00;;;6.10;69.40;;;;;;4893908;29;20076;-88
2022/04/11 07:28:54;;;;;;;11.38;5.40;;;6.20;69.40;;;;;;4895823;29;20501;-88
2022/04/11 07:31:21;;;;;;;10.15;5.13;;;6.40;69.30;;;;;;4889904;29;20045;-88
2022/04/11 07:33:49;;;;;;;8.65;4.97;;;6.40;69.30;;;;;;4891986;29;20502;-89
2022/04/11 07:36:16;;;;;;;8.07;5.00;;;6.50;69.20;;;;;;4893228;29;20151;-87
2022/04/11 07:38:43;;;;;;;11.63;4.68;;;6.60;69.10;;;;;;4897361;29;20052;-88
2022/04/11 07:41:10;;;;;;;8.32;4.28;;;6.70;68.90;;;;;;4897208;29;20108;-88
2022/04/11 07:43:37;;;;;;;7.80;4.57;;;6.80;68.80;;;;;;4910523;29;20110;-87
2022/04/11 07:46:05;;;;;;;8.35;4.75;;;6.90;68.60;;;;;;4897436;29;20056;-87
2022/04/11 07:48:32;;;;;;;8.27;4.45;;;7.00;68.50;;;;;;4895670;29;20053;-90
2022/04/11 07:50:59;;;;;;;8.23;4.05;;;7.10;68.50;;;;;;4894954;29;20457;-87
2022/04/11 07:53:27;;;;;;;6.80;4.20;;;7.20;68.40;;;;;;4896077;29;20053;-89
2022/04/11 07:55:54;;;;;;;7.68;4.18;;;7.30;68.20;;;;;;4898716;29;20052;-89
2022/04/11 07:58:21;;;;;;;6.03;4.05;;;7.40;68.00;;;;;;4896674;29;20108;-88
2022/04/11 08:00:51;;;;;;;9.45;4.28;;;7.40;67.80;;;;;;4895497;29;20104;-88
2022/04/11 08:03:19;;;;;;;7.60;4.00;;;7.50;67.60;;;;;;4895604;29;20051;-87
2022/04/11 08:05:46;;;;;;;7.00;4.18;;;7.70;67.50;;;;;;4895003;29;20052;-88
2022/04/11 08:08:13;;;;;;;8.82;3.85;;;7.70;67.40;;;;;;4895870;29;20081;-88
2022/04/11 08:10:40;;;;;;;6.45;4.10;;;7.90;67.20;;;;;;4898296;29;20071;-88
2022/04/11 08:13:07;;;;;;;6.95;4.20;;;7.90;67.00;;;;;;4895060;29;20130;-88
2022/04/11 08:15:34;;;;;;;7.65;3.80;;;8.00;66.80;;;;;;4895378;29;20136;-89
2022/04/11 08:18:01;;;;;;;9.13;3.80;;;8.20;66.60;;;;;;4896695;29;20059;-88
2022/04/11 08:20:28;;;;;;;8.10;3.78;;;8.20;66.40;;;;;;4896289;29;20055;-88
2022/04/11 08:22:55;;;;;;;7.40;3.85;;;8.40;66.20;;;;;;4898077;29;20060;-88
2022/04/11 08:25:23;;;;;;;8.75;4.28;;;8.40;66.00;;;;;;4896222;29;20474;-88
2022/04/11 08:27:49;;;;;;;7.28;3.45;;;8.60;65.80;;;;;;4894621;29;20573;-88
2022/04/11 08:30:17;;;;;;;8.45;4.00;;;8.70;65.60;;;;;;4894601;29;20068;-87
2022/04/11 08:32:46;;;;;;;6.82;3.78;;;8.80;65.40;;;;;;4895378;29;20120;-88
2022/04/11 08:35:14;;;;;;;7.40;3.70;;;8.90;65.20;;;;;;4896221;29;20057;-87
2022/04/11 08:37:41;;;;;;;8.13;3.72;;;9.00;65.00;;;;;;4898268;29;20052;-89
2022/04/11 08:40:13;;;;;;;6.05;3.70;;;9.20;64.90;;;;;;4895009;29;20104;-89
2022/04/11 08:42:42;;;;;;;9.68;3.75;;;9.30;64.70;;;;;;4894835;29;20056;-88
2022/04/11 08:45:15;;;;;;;6.43;3.58;;;9.40;64.50;;;;;;4894878;29;20045;-88
2022/04/11 08:47:42;;;;;;;8.52;3.80;;;9.50;64.20;;;;;;4893674;29;20053;-88
2022/04/11 08:50:11;;;;;;;8.38;4.30;;;9.60;63.90;;;;;;4895926;29;20052;-89
2022/04/11 08:52:39;;;;;;;9.25;3.33;;;9.70;63.70;;;;;;4897443;29;20055;-87
2022/04/11 08:55:08;;;;;;;6.75;3.28;;;9.90;63.40;;;;;;4894647;29;20052;-87
2022/04/11 08:57:36;;;;;;;6.15;3.40;;;10.00;63.00;;;;;;4896341;29;20072;-87
2022/04/11 09:00:15;;;;;;;6.97;3.20;;;10.10;62.70;;;;;;4894418;29;20048;-88
2022/04/11 09:02:44;;;;;;;9.43;3.63;;;10.20;62.40;;;;;;4894216;29;20471;-88
2022/04/11 09:05:20;;;;;;;7.00;3.22;;;10.30;62.20;;;;;;4896011;29;20409;-88
2022/04/11 09:07:50;;;;;;;9.32;3.20;;;10.40;61.90;;;;;;4898414;29;20048;-88
2022/04/11 09:10:29;;;;;;;5.90;3.47;;;10.50;61.70;;;;;;4894547;29;20053;-88
2022/04/11 09:13:02;;;;;;;6.80;3.55;;;10.60;61.40;;;;;;4894409;29;20068;-88
2022/04/11 09:15:45;;;;;;;11.07;4.00;;;10.70;61.10;;;;;;4894390;29;20047;-89
2022/04/11 09:18:13;;;;;;;10.95;3.63;;;10.80;60.80;;;;;;4893895;29;20048;-88
2022/04/11 09:20:42;;;;;;;11.13;3.40;;;10.90;60.60;;;;;;4894573;29;20064;-87
2022/04/11 09:23:20;;;;;;;10.77;4.10;;;11.00;60.40;;;;;;4896075;29;20059;-87
2022/04/11 09:25:47;;;;;;;6.28;3.22;;;11.10;60.30;;;;;;4898081;29;20502;-89
2022/04/11 09:28:14;;;;;;;6.15;3.60;;;11.20;60.20;;;;;;4894195;29;20061;-88
2022/04/11 09:30:45;;;;;;;6.50;3.90;;;11.20;60.10;;;;;;4894266;29;20123;-89
2022/04/11 09:33:12;;;;;;;7.22;3.88;;;11.40;60.00;;;;;;4893666;29;20048;-88
2022/04/11 09:35:49;;;;;;;7.05;3.90;;;11.40;59.90;;;;;;4895577;29;20513;-89
2022/04/11 09:38:18;;;;;;;5.95;3.85;;;11.50;59.70;;;;;;4894919;29;20479;-89
2022/04/11 09:40:49;;;;;;;5.95;3.63;;;11.60;59.60;;;;;;4896461;29;20049;-89
2022/04/11 09:43:23;;;;;;;6.10;3.63;;;11.70;59.40;;;;;;4893691;29;20055;-88
2022/04/11 09:45:54;;;;;;;9.23;3.97;;;11.80;59.30;;;;;;4893538;29;20414;-87
2022/04/11 09:48:26;;;;;;;9.55;3.72;;;11.90;59.10;;;;;;4893734;29;20111;-88
2022/04/11 09:50:54;;;;;;;6.78;4.07;;;12.00;58.90;;;;;;4894600;29;20040;-87
2022/04/11 09:53:24;;;;;;;6.25;3.53;;;12.10;58.90;;;;;;4879067;29;20071;-89
2022/04/11 09:55:53;;;;;;;5.57;3.55;;;12.20;58.80;;;;;;4893120;29;20052;-87
2022/04/11 09:58:21;;;;;;;8.20;3.75;;;12.30;58.80;;;;;;4895042;29;20052;-89
2022/04/11 10:00:51;;;;;;;10.50;3.80;;;12.40;58.80;;;;;;4893144;29;20108;-88
2022/04/11 10:03:21;;;;;;;5.32;3.15;;;12.40;58.70;;;;;;4894541;29;20629;-91
2022/04/11 10:05:49;;;;;;;6.85;3.33;;;12.50;58.50;;;;;;4894909;29;20040;-88
2022/04/11 10:08:17;;;;;;;5.85;3.70;;;12.60;58.40;;;;;;4894683;29;20452;-89
2022/04/11 10:10:44;;;;;;;7.93;3.78;;;12.70;58.20;;;;;;4896455;29;20637;-90
2022/04/11 10:13:14;;;;;;;6.47;3.83;;;12.80;58.00;;;;;;4893051;29;20063;-89
2022/04/11 10:15:43;;;;;;;7.05;3.88;;;12.90;57.70;;;;;;4894487;29;20076;-89
2022/04/11 10:18:14;;;;;;;5.57;3.22;;;12.90;57.50;;;;;;4896888;29;20063;-88
2022/04/11 10:20:56;;;;;;;5.53;3.20;;;13.00;57.30;;;;;;4894758;29;20174;-89
2022/04/11 10:24:08;;;;;;;7.63;3.50;;;13.10;57.20;;;;;;4880753;29;20144;-90
2022/04/11 10:27:20;;;;;;;6.28;3.85;;;13.20;57.00;;;;;;4880077;29;20089;-89
2022/04/11 10:29:50;;;;;;;7.20;3.95;;;13.40;56.90;;;;;;4819564;29;20054;-87
2022/04/11 10:32:19;;;;;;;8.02;4.50;;;13.40;56.70;;;;;;4819614;29;20046;-87
2022/04/11 10:34:50;;;;;;;7.40;3.90;;;13.50;56.50;;;;;;4821130;29;20111;-88
2022/04/11 10:37:19;;;;;;;7.07;3.60;;;13.60;56.40;;;;;;4819783;29;20057;-91
2022/04/11 10:39:47;;;;;;;5.78;3.38;;;13.70;56.20;;;;;;4819712;29;20050;-90
2022/04/11 10:42:22;;;;;;;6.00;3.75;;;13.80;56.20;;;;;;4819660;29;20054;-91
2022/04/11 10:44:54;;;;;;;7.90;3.75;;;13.90;56.20;;;;;;4819568;29;20457;-91
2022/04/11 10:47:26;;;;;;;7.85;4.35;;;13.90;56.10;;;;;;4819758;29;20469;-90
2022/04/11 10:49:53;;;;;;;8.25;4.38;;;14.00;55.90;;;;;;4817116;29;20057;-91
2022/04/11 10:52:35;;;;;;;8.52;4.75;;;14.10;55.80;;;;;;4820231;29;20436;-90
2022/04/11 10:55:08;;;;;;;6.53;4.18;;;14.20;55.50;;;;;;4819481;29;20058;-89
2022/04/11 10:57:36;;;;;;;8.13;4.72;;;14.30;55.40;;;;;;4819773;29;20061;-90
2022/04/11 11:00:06;;;;;;;10.23;5.07;;;14.40;55.30;;;;;;4819259;29;20452;-88
2022/04/11 11:02:59;;;;;;;8.55;3.85;;;14.40;55.20;;;;;;4819129;29;20073;-89
2022/04/11 11:05:57;;;;;;;6.55;4.00;;;14.40;55.00;;;;;;4815345;29;20515;-91
2022/04/11 11:08:25;;;;;;;6.78;4.28;;;14.50;55.00;;;;;;4875629;29;20052;-88
2022/04/11 11:10:55;;;;;;;5.50;3.60;;;14.60;55.00;;;;;;4897816;29;20053;-89
2022/04/11 11:13:34;;;;;;;6.13;3.63;;;14.70;55.10;;;;;;4892056;29;20506;-89
2022/04/11 11:16:07;;;;;;;6.10;3.67;;;14.70;55.20;;;;;;4883255;29;20050;-88
2022/04/11 11:18:50;;;;;;;7.85;4.57;;;14.80;55.10;;;;;;4889607;29;20052;-90
2022/04/11 11:21:28;;;;;;;7.40;4.43;;;14.90;55.00;;;;;;4894898;29;20572;-88
2022/04/11 11:24:04;;;;;;;8.27;4.53;;;14.90;54.80;;;;;;4894837;29;20048;-89
2022/04/11 11:26:46;;;;;;;6.82;3.67;;;15.00;54.80;;;;;;4881363;29;20124;-88
2022/04/11 11:29:17;;;;;;;7.22;3.92;;;15.10;54.70;;;;;;4896294;29;20568;-89
2022/04/11 11:31:46;;;;;;;8.52;5.45;;;15.20;54.50;;;;;;4898472;29;20055;-89
2022/04/11 11:34:14;;;;;;;6.63;4.05;;;15.30;54.40;;;;;;4896628;29;20410;-89
2022/04/11 11:36:42;;;;;;;6.78;4.22;;;15.30;54.30;;;;;;4896448;29;20064;-89
2022/04/11 11:39:19;;;;;;;7.47;4.35;;;15.40;54.10;;;;;;4894953;29;20417;-90
2022/04/11 11:41:49;;;;;;;7.80;4.55;;;15.40;54.10;;;;;;4894593;29;20104;-89
2022/04/11 11:44:16;;;;;;;6.03;4.05;;;15.50;54.10;;;;;;4895964;29;20064;-89
2022/04/11 11:46:46;;;;;;;10.07;5.90;;;15.60;54.10;;;;;;4898182;29;20127;-89
2022/04/11 11:49:13;;;;;;;8.43;5.22;;;15.70;54.00;;;;;;4896364;29;20049;-88
2022/04/11 11:51:40;;;;;;;7.07;4.97;;;15.80;53.90;;;;;;4894708;29;20056;-90
2022/04/11 11:54:07;;;;;;;8.05;4.95;;;15.80;53.60;;;;;;4894610;29;20053;-89
2022/04/11 11:56:45;;;;;;;6.80;4.13;;;15.90;53.50;;;;;;4894450;29;20507;-88
2022/04/11 11:59:15;;;;;;;6.22;4.88;;;15.90;53.50;;;;;;4896335;29;20052;-89
2022/04/11 12:04:40;;;;;;;10.27;4.70;;;16.00;53.30;;;;;;4844723;29;20140;-90
2022/04/11 12:07:07;;;;;;;5.95;4.35;;;16.20;53.20;;;;;;4845544;29;20062;-91
2022/04/11 12:09:42;;;;;;;8.30;4.85;;;16.20;53.10;;;;;;4846294;29;20523;-90
2022/04/11 12:12:09;;;;;;;7.25;4.95;;;16.30;53.00;;;;;;4800292;29;1340891;-89
2022/04/11 12:15:02;;;;;;;9.23;6.07;;;16.30;53.00;;;;;;4843555;29;20065;-88
2022/04/11 12:17:38;;;;;;;7.05;5.55;;;16.40;52.80;;;;;;4857809;29;20057;-88
2022/04/11 12:20:10;;;;;;;8.85;6.78;;;16.40;52.70;;;;;;4856636;29;20427;-89
2022/04/11 12:22:38;;;;;;;8.00;4.65;;;16.40;52.60;;;;;;4855630;29;20057;-89
2022/04/11 12:25:24;;;;;;;9.43;5.80;;;16.50;52.50;;;;;;4848633;29;20054;-88
2022/04/11 12:27:52;;;;;;;7.35;5.07;;;16.50;52.40;;;;;;4845710;29;20150;-88
2022/04/11 12:30:19;;;;;;;9.32;6.90;;;16.60;52.40;;;;;;4847333;29;20050;-88
2022/04/11 12:32:46;;;;;;;10.35;7.97;;;16.60;52.40;;;;;;4845825;29;20198;-89
2022/04/11 12:35:19;;;;;;;9.85;7.03;;;16.70;52.40;;;;;;4850394;29;20057;-87
2022/04/11 12:37:50;;;;;;;10.13;6.88;;;16.70;52.30;;;;;;4845711;29;20053;-88
2022/04/11 12:40:19;;;;;;;11.48;7.45;;;16.80;52.20;;;;;;4846615;29;20136;-89
2022/04/11 12:43:08;;;;;;;10.32;6.18;;;16.80;52.00;;;;;;4893388;29;20052;-87
2022/04/11 12:45:35;;;;;;;8.15;6.25;;;16.80;51.90;;;;;;4893739;29;20494;-87
2022/04/11 12:48:09;;;;;;;9.07;6.30;;;16.90;51.80;;;;;;4902546;29;20123;-88
2022/04/11 12:50:37;;;;;;;9.52;7.13;;;16.90;51.90;;;;;;4896189;29;20088;-87
2022/04/11 12:53:04;;;;;;;12.32;7.13;;;16.90;51.60;;;;;;4896859;29;20059;-88
2022/04/11 12:55:35;;;;;;;14.05;7.75;;;16.90;51.40;;;;;;4898089;29;20064;-88
2022/04/11 12:58:08;;;;;;;9.10;6.90;;;16.90;51.30;;;;;;4896448;29;20044;-88
2022/04/11 13:00:37;;;;;;;9.85;7.22;;;16.90;51.20;;;;;;4893857;29;20056;-88
2022/04/11 13:03:05;;;;;;;9.48;7.10;;;16.90;51.20;;;;;;4894640;29;20506;-91